sensor_id;sensor_type;location;lat;lon;timestamp;temperature;humidity
16172;DHT22;8192;53.596;10.166;2023-05-27T00:01:30;22.40;46.80
16172;DHT22;8192;53.596;10.166;2023-05-27T00:03:57;22.40;46.90
16172;DHT22;8192;53.596;10.166;2023-05-27T00:06:24;22.30;46.80
16172;DHT22;8192;53.596;10.166;2023-05-27T00:08:50;22.30;46.80
16172;DHT22;8192;53.596;10.166;2023-05-27T00:11:19;22.40;46.90
16172;DHT22;8192;53.596;10.166;2023-05-27T00:13:46;22.30;46.80
16172;DHT22;8192;53.596;10.166;2023-05-27T00:16:13;22.40;46.80
16172;DHT22;8192;53.596;10.166;2023-05-27T00:18:42;22.30;46.70
16172;DHT22;8192;53.596;10.166;2023-05-27T00:21:09;22.40;46.80
16172;DHT22;8192;53.596;10.166;2023-05-27T00:23:36;22.40;46.70
16172;DHT22;8192;53.596;10.166;2023-05-27T00:26:03;22.40;46.70
16172;DHT22;8192;53.596;10.166;2023-05-27T00:28:31;22.40;46.70
16172;DHT22;8192;53.596;10.166;2023-05-27T00:30:58;22.40;46.70
16172;DHT22;8192;53.596;10.166;2023-05-27T00:33:25;22.40;46.70
16172;DHT22;8192;53.596;10.166;2023-05-27T00:35:52;22.30;46.70
16172;DHT22;8192;53.596;10.166;2023-05-27T00:38:19;22.40;47.40
16172;DHT22;8192;53.596;10.166;2023-05-27T00:40:46;22.40;46.70
16172;DHT22;8192;53.596;10.166;2023-05-27T00:43:15;22.30;46.70
16172;DHT22;8192;53.596;10.166;2023-05-27T00:45:43;22.30;46.70
16172;DHT22;8192;53.596;10.166;2023-05-27T00:48:10;22.30;47.30
16172;DHT22;8192;53.596;10.166;2023-05-27T00:50:37;22.30;46.70
16172;DHT22;8192;53.596;10.166;2023-05-27T00:53:04;22.30;46.60
16172;DHT22;8192;53.596;10.166;2023-05-27T00:55:31;22.30;46.60
16172;DHT22;8192;53.596;10.166;2023-05-27T00:57:59;22.30;46.60
16172;DHT22;8192;53.596;10.166;2023-05-27T01:00:26;22.30;46.60
16172;DHT22;8192;53.596;10.166;2023-05-27T01:02:55;22.30;46.60
16172;DHT22;8192;53.596;10.166;2023-05-27T01:05:22;22.30;46.60
16172;DHT22;8192;53.596;10.166;2023-05-27T01:08:03;22.30;46.60
16172;DHT22;8192;53.596;10.166;2023-05-27T01:10:38;22.30;46.50
16172;DHT22;8192;53.596;10.166;2023-05-27T01:13:12;22.30;46.50
16172;DHT22;8192;53.596;10.166;2023-05-27T01:15:40;22.30;46.50
16172;DHT22;8192;53.596;10.166;2023-05-27T01:18:09;22.30;46.50
16172;DHT22;8192;53.596;10.166;2023-05-27T01:20:39;22.30;46.50
16172;DHT22;8192;53.596;10.166;2023-05-27T01:23:10;22.30;46.50
16172;DHT22;8192;53.596;10.166;2023-05-27T01:25:37;22.30;46.50
16172;DHT22;8192;53.596;10.166;2023-05-27T01:28:04;22.30;46.50
16172;DHT22;8192;53.596;10.166;2023-05-27T01:30:31;22.30;46.50
16172;DHT22;8192;53.596;10.166;2023-05-27T01:33:03;22.30;46.50
16172;DHT22;8192;53.596;10.166;2023-05-27T01:35:34;22.30;46.50
16172;DHT22;8192;53.596;10.166;2023-05-27T01:38:07;22.30;46.50
16172;DHT22;8192;53.596;10.166;2023-05-27T01:40:38;22.30;46.50
16172;DHT22;8192;53.596;10.166;2023-05-27T01:43:05;22.30;46.50
16172;DHT22;8192;53.596;10.166;2023-05-27T01:45:33;22.30;46.50
16172;DHT22;8192;53.596;10.166;2023-05-27T01:48:00;22.30;46.50
16172;DHT22;8192;53.596;10.166;2023-05-27T01:50:27;22.20;46.50
16172;DHT22;8192;53.596;10.166;2023-05-27T01:52:55;22.30;46.50
16172;DHT22;8192;53.596;10.166;2023-05-27T01:55:22;22.30;46.50
16172;DHT22;8192;53.596;10.166;2023-05-27T01:57:51;22.20;46.50
16172;DHT22;8192;53.596;10.166;2023-05-27T02:00:18;22.30;46.50
16172;DHT22;8192;53.596;10.166;2023-05-27T02:02:45;22.30;46.50
16172;DHT22;8192;53.596;10.166;2023-05-27T02:05:12;22.30;46.50
16172;DHT22;8192;53.596;10.166;2023-05-27T02:07:39;22.30;46.50
16172;DHT22;8192;53.596;10.166;2023-05-27T02:10:07;22.20;46.40
16172;DHT22;8192;53.596;10.166;2023-05-27T02:12:34;22.20;46.40
16172;DHT22;8192;53.596;10.166;2023-05-27T02:15:03;22.30;46.40
16172;DHT22;8192;53.596;10.166;2023-05-27T02:17:30;22.30;46.40
16172;DHT22;8192;53.596;10.166;2023-05-27T02:19:57;22.30;46.40
16172;DHT22;8192;53.596;10.166;2023-05-27T02:22:24;22.30;46.40
16172;DHT22;8192;53.596;10.166;2023-05-27T02:24:51;22.30;46.40
16172;DHT22;8192;53.596;10.166;2023-05-27T02:27:18;22.20;46.30
16172;DHT22;8192;53.596;10.166;2023-05-27T02:29:45;22.30;46.40
16172;DHT22;8192;53.596;10.166;2023-05-27T02:32:13;22.20;46.30
16172;DHT22;8192;53.596;10.166;2023-05-27T02:34:41;22.20;46.30
16172;DHT22;8192;53.596;10.166;2023-05-27T02:37:07;22.20;46.30
16172;DHT22;8192;53.596;10.166;2023-05-27T02:39:34;22.20;46.30
16172;DHT22;8192;53.596;10.166;2023-05-27T02:42:01;22.20;46.30
16172;DHT22;8192;53.596;10.166;2023-05-27T02:44:28;22.20;46.30
16172;DHT22;8192;53.596;10.166;2023-05-27T02:46:55;22.20;46.40
16172;DHT22;8192;53.596;10.166;2023-05-27T02:49:23;22.20;46.40
16172;DHT22;8192;53.596;10.166;2023-05-27T02:51:50;22.20;46.40
16172;DHT22;8192;53.596;10.166;2023-05-27T02:54:17;22.20;46.40
16172;DHT22;8192;53.596;10.166;2023-05-27T02:56:44;22.20;46.40
16172;DHT22;8192;53.596;10.166;2023-05-27T02:59:11;22.20;46.40
16172;DHT22;8192;53.596;10.166;2023-05-27T03:01:38;22.20;46.30
16172;DHT22;8192;53.596;10.166;2023-05-27T03:04:04;22.20;46.30
16172;DHT22;8192;53.596;10.166;2023-05-27T03:06:33;22.20;46.30
16172;DHT22;8192;53.596;10.166;2023-05-27T03:09:01;22.20;46.30
16172;DHT22;8192;53.596;10.166;2023-05-27T03:11:29;22.20;46.30
16172;DHT22;8192;53.596;10.166;2023-05-27T03:13:55;22.20;46.30
16172;DHT22;8192;53.596;10.166;2023-05-27T03:16:22;22.20;46.30
16172;DHT22;8192;53.596;10.166;2023-05-27T03:18:50;22.20;46.30
16172;DHT22;8192;53.596;10.166;2023-05-27T03:21:17;22.20;46.30
16172;DHT22;8192;53.596;10.166;2023-05-27T03:23:45;22.20;46.30
16172;DHT22;8192;53.596;10.166;2023-05-27T03:26:12;22.20;46.30
16172;DHT22;8192;53.596;10.166;2023-05-27T03:28:39;22.20;46.20
16172;DHT22;8192;53.596;10.166;2023-05-27T03:31:06;22.20;46.30
16172;DHT22;8192;53.596;10.166;2023-05-27T03:33:34;22.20;46.30
16172;DHT22;8192;53.596;10.166;2023-05-27T03:36:01;22.10;46.20
16172;DHT22;8192;53.596;10.166;2023-05-27T03:38:28;22.20;46.30
16172;DHT22;8192;53.596;10.166;2023-05-27T03:40:56;22.20;46.30
16172;DHT22;8192;53.596;10.166;2023-05-27T03:43:23;22.10;46.20
16172;DHT22;8192;53.596;10.166;2023-05-27T03:45:50;22.10;46.20
16172;DHT22;8192;53.596;10.166;2023-05-27T03:48:16;22.10;46.20
16172;DHT22;8192;53.596;10.166;2023-05-27T03:50:43;22.10;46.20
16172;DHT22;8192;53.596;10.166;2023-05-27T03:53:10;22.10;46.20
16172;DHT22;8192;53.596;10.166;2023-05-27T03:55:37;22.10;46.10
16172;DHT22;8192;53.596;10.166;2023-05-27T03:58:05;22.20;46.20
16172;DHT22;8192;53.596;10.166;2023-05-27T04:00:32;22.10;46.20
16172;DHT22;8192;53.596;10.166;2023-05-27T04:03:01;22.20;46.20
16172;DHT22;8192;53.596;10.166;2023-05-27T04:05:28;22.20;46.10
16172;DHT22;8192;53.596;10.166;2023-05-27T04:07:55;22.20;46.40
16172;DHT22;8192;53.596;10.166;2023-05-27T04:10:22;22.20;46.30
16172;DHT22;8192;53.596;10.166;2023-05-27T04:12:49;22.20;46.30
16172;DHT22;8192;53.596;10.166;2023-05-27T04:15:17;22.20;46.30
16172;DHT22;8192;53.596;10.166;2023-05-27T04:17:45;22.20;46.30
16172;DHT22;8192;53.596;10.166;2023-05-27T04:20:12;22.20;46.20
16172;DHT22;8192;53.596;10.166;2023-05-27T04:22:40;22.10;46.20
16172;DHT22;8192;53.596;10.166;2023-05-27T04:25:07;22.20;46.20
16172;DHT22;8192;53.596;10.166;2023-05-27T04:27:35;22.20;46.20
16172;DHT22;8192;53.596;10.166;2023-05-27T04:30:02;22.10;46.20
16172;DHT22;8192;53.596;10.166;2023-05-27T04:32:30;22.20;46.20
16172;DHT22;8192;53.596;10.166;2023-05-27T04:34:58;22.20;46.20
16172;DHT22;8192;53.596;10.166;2023-05-27T04:37:25;22.10;46.10
16172;DHT22;8192;53.596;10.166;2023-05-27T04:39:53;22.10;46.20
16172;DHT22;8192;53.596;10.166;2023-05-27T04:42:22;22.10;46.10
16172;DHT22;8192;53.596;10.166;2023-05-27T04:44:49;22.10;46.10
16172;DHT22;8192;53.596;10.166;2023-05-27T04:47:17;22.20;46.10
16172;DHT22;8192;53.596;10.166;2023-05-27T04:49:45;22.10;46.10
16172;DHT22;8192;53.596;10.166;2023-05-27T04:52:12;22.10;46.10
16172;DHT22;8192;53.596;10.166;2023-05-27T04:54:39;22.20;46.20
16172;DHT22;8192;53.596;10.166;2023-05-27T04:57:06;22.10;46.10
16172;DHT22;8192;53.596;10.166;2023-05-27T04:59:33;22.20;46.10
16172;DHT22;8192;53.596;10.166;2023-05-27T05:02:12;22.20;46.10
16172;DHT22;8192;53.596;10.166;2023-05-27T05:04:48;22.20;46.20
16172;DHT22;8192;53.596;10.166;2023-05-27T05:07:16;22.20;46.10
16172;DHT22;8192;53.596;10.166;2023-05-27T05:09:44;22.10;46.10
16172;DHT22;8192;53.596;10.166;2023-05-27T05:12:11;22.20;46.10
16172;DHT22;8192;53.596;10.166;2023-05-27T05:14:38;22.20;46.10
16172;DHT22;8192;53.596;10.166;2023-05-27T05:17:05;22.20;46.10
16172;DHT22;8192;53.596;10.166;2023-05-27T05:19:32;22.20;46.10
16172;DHT22;8192;53.596;10.166;2023-05-27T05:22:00;22.20;46.10
16172;DHT22;8192;53.596;10.166;2023-05-27T05:24:27;22.20;46.10
16172;DHT22;8192;53.596;10.166;2023-05-27T05:26:54;22.10;46.00
16172;DHT22;8192;53.596;10.166;2023-05-27T05:29:21;22.10;46.00
16172;DHT22;8192;53.596;10.166;2023-05-27T05:31:48;22.10;46.00
16172;DHT22;8192;53.596;10.166;2023-05-27T05:34:14;22.20;46.10
16172;DHT22;8192;53.596;10.166;2023-05-27T05:36:41;22.20;46.10
16172;DHT22;8192;53.596;10.166;2023-05-27T05:39:10;22.20;46.20
16172;DHT22;8192;53.596;10.166;2023-05-27T05:41:37;22.20;45.70
16172;DHT22;8192;53.596;10.166;2023-05-27T05:44:04;22.20;46.80
16172;DHT22;8192;53.596;10.166;2023-05-27T05:46:31;22.20;46.90
16172;DHT22;8192;53.596;10.166;2023-05-27T05:48:57;22.10;46.80
16172;DHT22;8192;53.596;10.166;2023-05-27T05:51:24;22.00;46.80
16172;DHT22;8192;53.596;10.166;2023-05-27T05:53:51;21.90;46.80
16172;DHT22;8192;53.596;10.166;2023-05-27T05:56:19;21.80;47.40
16172;DHT22;8192;53.596;10.166;2023-05-27T05:58:47;21.80;47.00
16172;DHT22;8192;53.596;10.166;2023-05-27T06:01:14;21.80;46.70
16172;DHT22;8192;53.596;10.166;2023-05-27T06:03:41;21.80;46.90
16172;DHT22;8192;53.596;10.166;2023-05-27T06:06:08;21.80;46.70
16172;DHT22;8192;53.596;10.166;2023-05-27T06:08:35;21.80;46.60
16172;DHT22;8192;53.596;10.166;2023-05-27T06:11:02;21.70;46.50
16172;DHT22;8192;53.596;10.166;2023-05-27T06:13:31;21.70;46.70
16172;DHT22;8192;53.596;10.166;2023-05-27T06:15:57;21.70;46.50
16172;DHT22;8192;53.596;10.166;2023-05-27T06:18:24;21.70;46.60
16172;DHT22;8192;53.596;10.166;2023-05-27T06:20:51;21.70;46.60
16172;DHT22;8192;53.596;10.166;2023-05-27T06:23:18;21.80;46.50
16172;DHT22;8192;53.596;10.166;2023-05-27T06:25:45;21.70;46.60
16172;DHT22;8192;53.596;10.166;2023-05-27T06:28:12;21.80;46.40
16172;DHT22;8192;53.596;10.166;2023-05-27T06:30:40;21.80;46.30
16172;DHT22;8192;53.596;10.166;2023-05-27T06:33:08;21.70;47.30
16172;DHT22;8192;53.596;10.166;2023-05-27T06:35:35;21.70;46.80
16172;DHT22;8192;53.596;10.166;2023-05-27T06:38:02;21.70;46.30
16172;DHT22;8192;53.596;10.166;2023-05-27T06:40:29;21.70;46.30
16172;DHT22;8192;53.596;10.166;2023-05-27T06:42:56;21.70;46.70
16172;DHT22;8192;53.596;10.166;2023-05-27T06:45:23;21.70;46.60
16172;DHT22;8192;53.596;10.166;2023-05-27T06:47:51;21.70;46.60
16172;DHT22;8192;53.596;10.166;2023-05-27T06:50:18;21.80;46.60
16172;DHT22;8192;53.596;10.166;2023-05-27T06:52:45;21.80;46.50
16172;DHT22;8192;53.596;10.166;2023-05-27T06:55:12;21.80;46.00
16172;DHT22;8192;53.596;10.166;2023-05-27T06:57:39;21.70;46.50
16172;DHT22;8192;53.596;10.166;2023-05-27T07:00:07;21.80;46.60
16172;DHT22;8192;53.596;10.166;2023-05-27T07:02:34;21.70;46.30
16172;DHT22;8192;53.596;10.166;2023-05-27T07:05:03;21.70;46.50
16172;DHT22;8192;53.596;10.166;2023-05-27T07:07:30;21.80;46.70
16172;DHT22;8192;53.596;10.166;2023-05-27T07:09:57;21.90;46.50
16172;DHT22;8192;53.596;10.166;2023-05-27T07:12:24;21.90;46.30
16172;DHT22;8192;53.596;10.166;2023-05-27T07:14:51;21.90;47.00
16172;DHT22;8192;53.596;10.166;2023-05-27T07:17:18;22.00;46.40
16172;DHT22;8192;53.596;10.166;2023-05-27T07:19:45;22.00;46.30
16172;DHT22;8192;53.596;10.166;2023-05-27T07:22:13;21.90;46.00
16172;DHT22;8192;53.596;10.166;2023-05-27T07:24:39;21.90;46.10
16172;DHT22;8192;53.596;10.166;2023-05-27T07:27:06;21.80;46.30
16172;DHT22;8192;53.596;10.166;2023-05-27T07:29:33;21.80;46.10
16172;DHT22;8192;53.596;10.166;2023-05-27T07:32:00;21.80;46.50
16172;DHT22;8192;53.596;10.166;2023-05-27T07:34:27;21.90;46.50
16172;DHT22;8192;53.596;10.166;2023-05-27T07:36:54;21.90;46.40
16172;DHT22;8192;53.596;10.166;2023-05-27T07:39:23;21.90;46.10
16172;DHT22;8192;53.596;10.166;2023-05-27T07:41:49;21.90;46.30
16172;DHT22;8192;53.596;10.166;2023-05-27T07:44:17;21.90;47.10
16172;DHT22;8192;53.596;10.166;2023-05-27T07:46:44;22.00;46.40
16172;DHT22;8192;53.596;10.166;2023-05-27T07:49:12;22.00;46.00
16172;DHT22;8192;53.596;10.166;2023-05-27T07:51:39;22.00;46.30
16172;DHT22;8192;53.596;10.166;2023-05-27T07:54:06;22.00;46.30
16172;DHT22;8192;53.596;10.166;2023-05-27T07:56:34;22.10;46.40
16172;DHT22;8192;53.596;10.166;2023-05-27T07:59:01;22.10;46.30
16172;DHT22;8192;53.596;10.166;2023-05-27T08:01:29;22.10;46.30
16172;DHT22;8192;53.596;10.166;2023-05-27T08:03:57;22.10;46.20
16172;DHT22;8192;53.596;10.166;2023-05-27T08:06:24;22.10;46.70
16172;DHT22;8192;53.596;10.166;2023-05-27T08:08:51;22.10;46.20
16172;DHT22;8192;53.596;10.166;2023-05-27T08:11:18;22.10;46.20
16172;DHT22;8192;53.596;10.166;2023-05-27T08:13:47;22.10;46.20
16172;DHT22;8192;53.596;10.166;2023-05-27T08:16:13;22.00;45.60
16172;DHT22;8192;53.596;10.166;2023-05-27T08:18:40;22.00;45.90
16172;DHT22;8192;53.596;10.166;2023-05-27T08:21:07;22.00;46.10
16172;DHT22;8192;53.596;10.166;2023-05-27T08:23:34;22.10;45.90
16172;DHT22;8192;53.596;10.166;2023-05-27T08:26:01;22.10;46.20
16172;DHT22;8192;53.596;10.166;2023-05-27T08:28:28;22.10;46.30
16172;DHT22;8192;53.596;10.166;2023-05-27T08:30:56;22.10;46.40
16172;DHT22;8192;53.596;10.166;2023-05-27T08:33:23;22.20;46.50
16172;DHT22;8192;53.596;10.166;2023-05-27T08:35:50;22.10;46.50
16172;DHT22;8192;53.596;10.166;2023-05-27T08:38:17;22.20;46.60
16172;DHT22;8192;53.596;10.166;2023-05-27T08:40:44;22.20;46.60
16172;DHT22;8192;53.596;10.166;2023-05-27T08:43:11;22.20;46.60
16172;DHT22;8192;53.596;10.166;2023-05-27T08:45:38;22.20;46.60
16172;DHT22;8192;53.596;10.166;2023-05-27T08:48:08;22.20;46.60
16172;DHT22;8192;53.596;10.166;2023-05-27T08:50:35;22.20;46.70
16172;DHT22;8192;53.596;10.166;2023-05-27T08:53:03;22.20;46.60
16172;DHT22;8192;53.596;10.166;2023-05-27T08:55:30;22.20;46.60
16172;DHT22;8192;53.596;10.166;2023-05-27T08:57:58;22.20;46.60
16172;DHT22;8192;53.596;10.166;2023-05-27T09:00:26;22.20;46.70
16172;DHT22;8192;53.596;10.166;2023-05-27T09:02:53;22.20;46.70
16172;DHT22;8192;53.596;10.166;2023-05-27T09:05:23;22.20;46.80
16172;DHT22;8192;53.596;10.166;2023-05-27T09:07:50;22.20;46.80
16172;DHT22;8192;53.596;10.166;2023-05-27T09:10:17;22.20;46.70
16172;DHT22;8192;53.596;10.166;2023-05-27T09:12:44;22.20;46.70
16172;DHT22;8192;53.596;10.166;2023-05-27T09:15:11;22.30;46.80
16172;DHT22;8192;53.596;10.166;2023-05-27T09:17:40;22.20;46.20
16172;DHT22;8192;53.596;10.166;2023-05-27T09:20:08;22.30;46.00
